sensor_id;sensor_type;location;lat;lon;timestamp;temperature;humidity
16384;DHT22;8301;51.440;6.610;2023-02-01T00:02:24;4.80;99.90
16384;DHT22;8301;51.440;6.610;2023-02-01T00:04:51;4.90;99.90
16384;DHT22;8301;51.440;6.610;2023-02-01T00:07:18;4.90;99.90
16384;DHT22;8301;51.440;6.610;2023-02-01T00:10:04;5.00;99.90
16384;DHT22;8301;51.440;6.610;2023-02-01T00:12:31;5.00;99.90
16384;DHT22;8301;51.440;6.610;2023-02-01T00:14:58;5.10;99.90
16384;DHT22;8301;51.440;6.610;2023-02-01T00:17:25;5.00;99.90
16384;DHT22;8301;51.440;6.610;2023-02-01T00:19:51;5.10;99.90
16384;DHT22;8301;51.440;6.610;2023-02-01T00:22:18;5.10;99.90
16384;DHT22;8301;51.440;6.610;2023-02-01T00:24:47;5.00;99.90
16384;DHT22;8301;51.440;6.610;2023-02-01T00:27:14;5.10;99.90
16384;DHT22;8301;51.440;6.610;2023-02-01T00:29:42;5.10;99.90
16384;DHT22;8301;51.440;6.610;2023-02-01T00:32:10;5.10;99.90
16384;DHT22;8301;51.440;6.610;2023-02-01T00:34:37;5.10;99.90
16384;DHT22;8301;51.440;6.610;2023-02-01T00:37:04;5.00;99.90
16384;DHT22;8301;51.440;6.610;2023-02-01T00:39:40;5.00;99.90
16384;DHT22;8301;51.440;6.610;2023-02-01T00:42:07;5.00;99.90
16384;DHT22;8301;51.440;6.610;2023-02-01T00:44:34;5.30;99.90
16384;DHT22;8301;51.440;6.610;2023-02-01T00:47:01;5.30;99.90
16384;DHT22;8301;51.440;6.610;2023-02-01T00:52:35;5.30;99.90
16384;DHT22;8301;51.440;6.610;2023-02-01T00:55:02;5.30;99.90
16384;DHT22;8301;51.440;6.610;2023-02-01T00:57:29;5.20;99.90
16384;DHT22;8301;51.440;6.610;2023-02-01T00:59:57;5.20;99.90
16384;DHT22;8301;51.440;6.610;2023-02-01T01:02:26;5.10;99.90
16384;DHT22;8301;51.440;6.610;2023-02-01T01:04:53;5.20;99.90
16384;DHT22;8301;51.440;6.610;2023-02-01T01:07:20;5.10;99.90
16384;DHT22;8301;51.440;6.610;2023-02-01T01:09:47;5.10;99.90
16384;DHT22;8301;51.440;6.610;2023-02-01T01:12:21;5.00;99.90
16384;DHT22;8301;51.440;6.610;2023-02-01T01:14:48;5.10;99.90
16384;DHT22;8301;51.440;6.610;2023-02-01T01:17:14;5.10;99.90
16384;DHT22;8301;51.440;6.610;2023-02-01T01:19:41;5.10;99.90
16384;DHT22;8301;51.440;6.610;2023-02-01T01:22:09;5.10;99.90
16384;DHT22;8301;51.440;6.610;2023-02-01T01:24:36;5.10;99.90
16384;DHT22;8301;51.440;6.610;2023-02-01T01:27:03;5.00;99.90
16384;DHT22;8301;51.440;6.610;2023-02-01T01:29:29;5.00;99.90
16384;DHT22;8301;51.440;6.610;2023-02-01T01:31:56;5.00;99.90
16384;DHT22;8301;51.440;6.610;2023-02-01T01:34:23;5.00;99.90
16384;DHT22;8301;51.440;6.610;2023-02-01T01:36:50;5.10;99.90
16384;DHT22;8301;51.440;6.610;2023-02-01T01:39:18;5.10;99.90
16384;DHT22;8301;51.440;6.610;2023-02-01T01:41:44;5.00;99.90
16384;DHT22;8301;51.440;6.610;2023-02-01T01:46:57;5.20;99.90
16384;DHT22;8301;51.440;6.610;2023-02-01T01:49:24;5.10;99.90
16384;DHT22;8301;51.440;6.610;2023-02-01T01:51:53;5.10;99.90
16384;DHT22;8301;51.440;6.610;2023-02-01T01:54:25;5.10;99.90
16384;DHT22;8301;51.440;6.610;2023-02-01T01:56:53;5.00;99.90
16384;DHT22;8301;51.440;6.610;2023-02-01T01:59:21;5.10;99.90
16384;DHT22;8301;51.440;6.610;2023-02-01T02:01:55;5.00;99.90
16384;DHT22;8301;51.440;6.610;2023-02-01T02:04:22;5.00;99.90
16384;DHT22;8301;51.440;6.610;2023-02-01T02:06:54;4.90;99.90
16384;DHT22;8301;51.440;6.610;2023-02-01T02:09:17;4.80;99.90
16384;DHT22;8301;51.440;6.610;2023-02-01T02:11:44;4.80;99.90
16384;DHT22;8301;51.440;6.610;2023-02-01T02:14:11;4.90;99.90
16384;DHT22;8301;51.440;6.610;2023-02-01T02:38:12;4.10;99.90
16384;DHT22;8301;51.440;6.610;2023-02-01T02:43:30;4.00;99.90
16384;DHT22;8301;51.440;6.610;2023-02-01T02:49:04;4.00;99.90
16384;DHT22;8301;51.440;6.610;2023-02-01T02:51:35;4.20;99.90
16384;DHT22;8301;51.440;6.610;2023-02-01T02:54:15;4.10;99.90
16384;DHT22;8301;51.440;6.610;2023-02-01T02:57:02;3.90;99.90
16384;DHT22;8301;51.440;6.610;2023-02-01T02:59:48;4.00;99.90
16384;DHT22;8301;51.440;6.610;2023-02-01T03:02:34;4.00;99.90
16384;DHT22;8301;51.440;6.610;2023-02-01T03:05:20;4.10;99.90
16384;DHT22;8301;51.440;6.610;2023-02-01T03:13:09;4.30;99.90
16384;DHT22;8301;51.440;6.610;2023-02-01T03:15:49;4.30;99.90
16384;DHT22;8301;51.440;6.610;2023-02-01T03:18:30;4.40;99.90
16384;DHT22;8301;51.440;6.610;2023-02-01T03:20:51;4.40;99.90
16384;DHT22;8301;51.440;6.610;2023-02-01T03:23:20;4.50;99.90
16384;DHT22;8301;51.440;6.610;2023-02-01T03:25:48;4.60;99.90
16384;DHT22;8301;51.440;6.610;2023-02-01T03:28:16;4.70;99.90
16384;DHT22;8301;51.440;6.610;2023-02-01T03:30:46;4.80;99.90
16384;DHT22;8301;51.440;6.610;2023-02-01T03:33:19;4.80;99.90
16384;DHT22;8301;51.440;6.610;2023-02-01T03:35:57;4.80;99.90
16384;DHT22;8301;51.440;6.610;2023-02-01T03:40:57;4.90;99.90
16384;DHT22;8301;51.440;6.610;2023-02-01T03:43:23;5.00;99.90
16384;DHT22;8301;51.440;6.610;2023-02-01T03:45:53;4.90;99.90
16384;DHT22;8301;51.440;6.610;2023-02-01T03:48:33;5.00;99.90
16384;DHT22;8301;51.440;6.610;2023-02-01T03:51:09;5.10;99.90
16384;DHT22;8301;51.440;6.610;2023-02-01T03:53:37;5.00;99.90
16384;DHT22;8301;51.440;6.610;2023-02-01T03:56:05;5.10;99.90
16384;DHT22;8301;51.440;6.610;2023-02-01T03:58:32;5.10;99.90
16384;DHT22;8301;51.440;6.610;2023-02-01T04:00:59;5.20;99.90
16384;DHT22;8301;51.440;6.610;2023-02-01T04:03:26;5.10;99.90
16384;DHT22;8301;51.440;6.610;2023-02-01T04:05:53;5.10;99.90
16384;DHT22;8301;51.440;6.610;2023-02-01T04:08:23;4.90;99.90
16384;DHT22;8301;51.440;6.610;2023-02-01T04:10:52;4.90;99.90
16384;DHT22;8301;51.440;6.610;2023-02-01T04:13:24;4.90;99.90
16384;DHT22;8301;51.440;6.610;2023-02-01T04:15:51;4.80;99.90
16384;DHT22;8301;51.440;6.610;2023-02-01T04:18:19;4.90;99.90
16384;DHT22;8301;51.440;6.610;2023-02-01T04:20:45;4.80;99.90
16384;DHT22;8301;51.440;6.610;2023-02-01T04:23:12;4.70;99.90
16384;DHT22;8301;51.440;6.610;2023-02-01T04:25:41;4.70;99.90
16384;DHT22;8301;51.440;6.610;2023-02-01T04:28:08;4.70;99.90
16384;DHT22;8301;51.440;6.610;2023-02-01T04:30:35;4.70;99.90
16384;DHT22;8301;51.440;6.610;2023-02-01T04:33:01;4.80;99.90
16384;DHT22;8301;51.440;6.610;2023-02-01T04:35:31;4.80;99.90
16384;DHT22;8301;51.440;6.610;2023-02-01T04:37:58;4.70;99.90
16384;DHT22;8301;51.440;6.610;2023-02-01T04:40:25;4.80;99.90
16384;DHT22;8301;51.440;6.610;2023-02-01T04:42:53;4.90;99.90
16384;DHT22;8301;51.440;6.610;2023-02-01T04:45:20;5.00;99.90
16384;DHT22;8301;51.440;6.610;2023-02-01T04:47:47;5.00;99.90
16384;DHT22;8301;51.440;6.610;2023-02-01T04:50:20;4.90;99.90
16384;DHT22;8301;51.440;6.610;2023-02-01T04:52:47;4.90;99.90
16384;DHT22;8301;51.440;6.610;2023-02-01T04:55:14;4.80;99.90
16384;DHT22;8301;51.440;6.610;2023-02-01T04:57:41;4.90;99.90
16384;DHT22;8301;51.440;6.610;2023-02-01T05:00:08;4.80;99.90
16384;DHT22;8301;51.440;6.610;2023-02-01T05:02:35;4.80;99.90
16384;DHT22;8301;51.440;6.610;2023-02-01T05:05:03;4.80;99.90
16384;DHT22;8301;51.440;6.610;2023-02-01T05:07:32;4.80;99.90
16384;DHT22;8301;51.440;6.610;2023-02-01T05:10:03;4.70;99.90
16384;DHT22;8301;51.440;6.610;2023-02-01T05:12:30;4.80;99.90
16384;DHT22;8301;51.440;6.610;2023-02-01T05:15:15;4.70;99.90
16384;DHT22;8301;51.440;6.610;2023-02-01T05:17:42;4.60;99.90
16384;DHT22;8301;51.440;6.610;2023-02-01T05:20:09;4.50;99.90
16384;DHT22;8301;51.440;6.610;2023-02-01T05:22:36;4.50;99.90
16384;DHT22;8301;51.440;6.610;2023-02-01T05:25:03;4.50;99.90
16384;DHT22;8301;51.440;6.610;2023-02-01T05:27:30;4.50;99.90
16384;DHT22;8301;51.440;6.610;2023-02-01T05:29:58;4.50;99.90
16384;DHT22;8301;51.440;6.610;2023-02-01T05:32:25;4.50;99.90
16384;DHT22;8301;51.440;6.610;2023-02-01T05:34:51;4.50;99.90
16384;DHT22;8301;51.440;6.610;2023-02-01T05:37:24;4.50;99.90
16384;DHT22;8301;51.440;6.610;2023-02-01T05:39:52;4.50;99.90
16384;DHT22;8301;51.440;6.610;2023-02-01T05:42:18;4.40;99.90
16384;DHT22;8301;51.440;6.610;2023-02-01T05:44:45;4.40;99.90
16384;DHT22;8301;51.440;6.610;2023-02-01T05:47:12;4.40;99.90
16384;DHT22;8301;51.440;6.610;2023-02-01T05:49:40;4.50;99.90
16384;DHT22;8301;51.440;6.610;2023-02-01T05:52:07;4.50;99.90
16384;DHT22;8301;51.440;6.610;2023-02-01T05:54:33;4.60;99.90
16384;DHT22;8301;51.440;6.610;2023-02-01T05:57:03;4.60;99.90
16384;DHT22;8301;51.440;6.610;2023-02-01T06:02:02;4.60;99.90
16384;DHT22;8301;51.440;6.610;2023-02-01T06:04:29;4.60;99.90
16384;DHT22;8301;51.440;6.610;2023-02-01T06:06:55;4.70;99.90
16384;DHT22;8301;51.440;6.610;2023-02-01T06:09:22;4.80;99.90
16384;DHT22;8301;51.440;6.610;2023-02-01T06:11:50;4.90;99.90
16384;DHT22;8301;51.440;6.610;2023-02-01T06:14:17;4.90;99.90
16384;DHT22;8301;51.440;6.610;2023-02-01T06:16:44;5.00;99.90
16384;DHT22;8301;51.440;6.610;2023-02-01T06:19:12;5.10;99.90
16384;DHT22;8301;51.440;6.610;2023-02-01T06:21:43;5.10;99.90
16384;DHT22;8301;51.440;6.610;2023-02-01T06:24:11;5.10;99.90
16384;DHT22;8301;51.440;6.610;2023-02-01T06:26:38;5.10;99.90
16384;DHT22;8301;51.440;6.610;2023-02-01T06:29:06;5.10;99.90
16384;DHT22;8301;51.440;6.610;2023-02-01T06:31:39;5.20;99.90
16384;DHT22;8301;51.440;6.610;2023-02-01T06:34:12;5.10;99.90
16384;DHT22;8301;51.440;6.610;2023-02-01T06:36:45;5.10;99.90
16384;DHT22;8301;51.440;6.610;2023-02-01T06:39:11;5.20;99.90
16384;DHT22;8301;51.440;6.610;2023-02-01T06:41:50;5.10;99.90
16384;DHT22;8301;51.440;6.610;2023-02-01T06:44:11;5.10;99.90
16384;DHT22;8301;51.440;6.610;2023-02-01T06:46:38;5.20;99.90
16384;DHT22;8301;51.440;6.610;2023-02-01T06:49:05;5.20;99.90
16384;DHT22;8301;51.440;6.610;2023-02-01T06:54:02;5.20;99.90
16384;DHT22;8301;51.440;6.610;2023-02-01T06:56:29;5.10;99.90
16384;DHT22;8301;51.440;6.610;2023-02-01T06:58:57;5.20;99.90
16384;DHT22;8301;51.440;6.610;2023-02-01T07:01:26;5.10;99.90
16384;DHT22;8301;51.440;6.610;2023-02-01T07:03:55;5.20;99.90
16384;DHT22;8301;51.440;6.610;2023-02-01T07:06:22;5.20;99.90
16384;DHT22;8301;51.440;6.610;2023-02-01T07:08:48;5.30;99.90
16384;DHT22;8301;51.440;6.610;2023-02-01T07:11:16;5.30;99.90
16384;DHT22;8301;51.440;6.610;2023-02-01T07:13:49;5.30;99.90
16384;DHT22;8301;51.440;6.610;2023-02-01T07:16:17;5.30;99.90
16384;DHT22;8301;51.440;6.610;2023-02-01T07:18:52;5.40;99.90
16384;DHT22;8301;51.440;6.610;2023-02-01T07:21:20;5.40;99.90
16384;DHT22;8301;51.440;6.610;2023-02-01T07:23:47;5.40;99.90
16384;DHT22;8301;51.440;6.610;2023-02-01T07:26:15;5.40;99.90
16384;DHT22;8301;51.440;6.610;2023-02-01T07:28:49;5.40;99.90
16384;DHT22;8301;51.440;6.610;2023-02-01T07:31:18;5.50;99.90
16384;DHT22;8301;51.440;6.610;2023-02-01T07:33:48;5.50;99.90
16384;DHT22;8301;51.440;6.610;2023-02-01T07:36:30;5.40;99.90
16384;DHT22;8301;51.440;6.610;2023-02-01T07:38:57;5.40;99.90
16384;DHT22;8301;51.440;6.610;2023-02-01T07:41:25;5.50;99.90
16384;DHT22;8301;51.440;6.610;2023-02-01T07:43:52;5.50;99.90
16384;DHT22;8301;51.440;6.610;2023-02-01T07:46:19;5.50;99.90
16384;DHT22;8301;51.440;6.610;2023-02-01T07:48:52;5.50;99.90
16384;DHT22;8301;51.440;6.610;2023-02-01T07:51:22;5.40;99.90
16384;DHT22;8301;51.440;6.610;2023-02-01T07:53:49;5.30;99.90
16384;DHT22;8301;51.440;6.610;2023-02-01T07:56:18;5.30;99.90
16384;DHT22;8301;51.440;6.610;2023-02-01T07:58:48;5.20;99.90
16384;DHT22;8301;51.440;6.610;2023-02-01T08:01:19;5.20;99.90
16384;DHT22;8301;51.440;6.610;2023-02-01T08:03:50;5.30;99.90
16384;DHT22;8301;51.440;6.610;2023-02-01T08:06:17;5.30;99.90
16384;DHT22;8301;51.440;6.610;2023-02-01T08:08:46;5.30;99.90
16384;DHT22;8301;51.440;6.610;2023-02-01T08:11:13;5.30;99.90
16384;DHT22;8301;51.440;6.610;2023-02-01T08:13:40;5.30;99.90
16384;DHT22;8301;51.440;6.610;2023-02-01T08:16:07;5.30;99.90
16384;DHT22;8301;51.440;6.610;2023-02-01T08:18:36;5.30;99.90
16384;DHT22;8301;51.440;6.610;2023-02-01T08:23:41;5.30;99.90
16384;DHT22;8301;51.440;6.610;2023-02-01T08:26:11;5.40;99.90
16384;DHT22;8301;51.440;6.610;2023-02-01T08:28:40;5.40;99.90
16384;DHT22;8301;51.440;6.610;2023-02-01T08:31:08;5.40;99.90
16384;DHT22;8301;51.440;6.610;2023-02-01T08:33:35;5.40;99.90
16384;DHT22;8301;51.440;6.610;2023-02-01T08:36:04;5.40;99.90
16384;DHT22;8301;51.440;6.610;2023-02-01T08:38:32;5.40;99.90
16384;DHT22;8301;51.440;6.610;2023-02-01T08:41:03;5.40;99.90
16384;DHT22;8301;51.440;6.610;2023-02-01T08:43:29;5.50;99.90
16384;DHT22;8301;51.440;6.610;2023-02-01T08:45:56;5.50;99.90
16384;DHT22;8301;51.440;6.610;2023-02-01T08:48:23;5.50;99.90
16384;DHT22;8301;51.440;6.610;2023-02-01T08:50:49;5.60;99.90
16384;DHT22;8301;51.440;6.610;2023-02-01T08:53:16;5.60;99.90
16384;DHT22;8301;51.440;6.610;2023-02-01T08:55:45;5.60;99.90
16384;DHT22;8301;51.440;6.610;2023-02-01T08:58:12;5.60;99.90
16384;DHT22;8301;51.440;6.610;2023-02-01T09:00:43;5.70;99.90
16384;DHT22;8301;51.440;6.610;2023-02-01T09:03:11;5.70;99.90
16384;DHT22;8301;51.440;6.610;2023-02-01T09:05:38;5.70;99.90
16384;DHT22;8301;51.440;6.610;2023-02-01T09:08:08;5.70;99.90
16384;DHT22;8301;51.440;6.610;2023-02-01T09:10:43;5.60;99.90
16384;DHT22;8301;51.440;6.610;2023-02-01T09:13:16;5.70;99.90
16384;DHT22;8301;51.440;6.610;2023-02-01T09:15:43;5.70;99.90
16384;DHT22;8301;51.440;6.610;2023-02-01T09:18:18;5.70;99.90
16384;DHT22;8301;51.440;6.610;2023-02-01T09:20:45;5.70;99.90
16384;DHT22;8301;51.440;6.610;2023-02-01T09:23:12;5.80;99.90
16384;DHT22;8301;51.440;6.610;2023-02-01T09:25:39;5.90;99.90
16384;DHT22;8301;51.440;6.610;2023-02-01T09:28:07;5.90;99.90
16384;DHT22;8301;51.440;6.610;2023-02-01T09:30:36;5.90;99.90
16384;DHT22;8301;51.440;6.610;2023-02-01T09:33:03;6.00;99.90
16384;DHT22;8301;51.440;6.610;2023-02-01T09:35:30;6.00;99.90
16384;DHT22;8301;51.440;6.610;2023-02-01T09:37:57;5.90;99.90
16384;DHT22;8301;51.440;6.610;2023-02-01T09:40:24;6.00;99.90
16384;DHT22;8301;51.440;6.610;2023-02-01T09:42:57;6.00;99.90
16384;DHT22;8301;51.440;6.610;2023-02-01T09:47:51;6.10;99.90
16384;DHT22;8301;51.440;6.610;2023-02-01T09:50:22;6.10;99.90
16384;DHT22;8301;51.440;6.610;2023-02-01T09:55:41;6.30;99.90
16384;DHT22;8301;51.440;6.610;2023-02-01T09:58:11;6.30;99.90
16384;DHT22;8301;51.440;6.610;2023-02-01T10:00:37;6.40;99.90
16384;DHT22;8301;51.440;6.610;2023-02-01T10:03:12;6.40;99.90
16384;DHT22;8301;51.440;6.610;2023-02-01T10:10:47;6.70;99.90
16384;DHT22;8301;51.440;6.610;2023-02-01T10:18:42;6.70;99.90
16384;DHT22;8301;51.440;6.610;2023-02-01T10:21:28;6.70;99.90
16384;DHT22;8301;51.440;6.610;2023-02-01T10:24:02;6.70;99.90
16384;DHT22;8301;51.440;6.610;2023-02-01T10:26:28;6.70;99.90
16384;DHT22;8301;51.440;6.610;2023-02-01T10:28:57;6.70;99.90
16384;DHT22;8301;51.440;6.610;2023-02-01T10:31:24;6.60;99.90
16384;DHT22;8301;51.440;6.610;2023-02-01T10:34:38;6.60;99.90
16384;DHT22;8301;51.440;6.610;2023-02-01T10:36:21;6.60;99.90
16384;DHT22;8301;51.440;6.610;2023-02-01T10:38:48;6.60;99.90
16384;DHT22;8301;51.440;6.610;2023-02-01T10:41:26;6.70;99.90
16384;DHT22;8301;51.440;6.610;2023-02-01T10:43:54;6.70;99.90
16384;DHT22;8301;51.440;6.610;2023-02-01T10:46:31;6.70;99.90
16384;DHT22;8301;51.440;6.610;2023-02-01T10:49:08;6.80;99.90
16384;DHT22;8301;51.440;6.610;2023-02-01T10:51:42;6.80;99.90
16384;DHT22;8301;51.440;6.610;2023-02-01T10:54:18;6.90;99.90
16384;DHT22;8301;51.440;6.610;2023-02-01T10:56:46;6.90;99.90
16384;DHT22;8301;51.440;6.610;2023-02-01T10:59:21;6.90;99.90
16384;DHT22;8301;51.440;6.610;2023-02-01T11:01:48;6.90;99.90
16384;DHT22;8301;51.440;6.610;2023-02-01T11:04:20;7.20;99.90
16384;DHT22;8301;51.440;6.610;2023-02-01T11:06:49;7.30;99.90
16384;DHT22;8301;51.440;6.610;2023-02-01T11:09:21;7.30;99.90
16384;DHT22;8301;51.440;6.610;2023-02-01T11:16:59;7.20;99.90
16384;DHT22;8301;51.440;6.610;2023-02-01T11:19:26;7.20;99.90
16384;DHT22;8301;51.440;6.610;2023-02-01T11:21:54;7.10;99.90
16384;DHT22;8301;51.440;6.610;2023-02-01T11:24:33;7.00;99.90
16384;DHT22;8301;51.440;6.610;2023-02-01T11:27:02;7.00;99.90
16384;DHT22;8301;51.440;6.610;2023-02-01T11:29:40;7.00;99.90
16384;DHT22;8301;51.440;6.610;2023-02-01T11:31:58;6.90;99.90
16384;DHT22;8301;51.440;6.610;2023-02-01T11:34:51;6.90;99.90
16384;DHT22;8301;51.440;6.610;2023-02-01T11:36:57;6.90;99.90
16384;DHT22;8301;51.440;6.610;2023-02-01T11:39:25;6.90;99.90
16384;DHT22;8301;51.440;6.610;2023-02-01T11:44:34;6.90;99.90
16384;DHT22;8301;51.440;6.610;2023-02-01T11:47:46;6.90;99.90
16384;DHT22;8301;51.440;6.610;2023-02-01T11:49:33;6.80;99.90
16384;DHT22;8301;51.440;6.610;2023-02-01T11:57:22;6.90;99.90
16384;DHT22;8301;51.440;6.610;2023-02-01T12:05:31;7.00;99.90
16384;DHT22;8301;51.440;6.610;2023-02-01T12:10:48;7.00;99.90
16384;DHT22;8301;51.440;6.610;2023-02-01T12:13:32;7.00;99.90
16384;DHT22;8301;51.440;6.610;2023-02-01T12:21:23;7.30;99.90
16384;DHT22;8301;51.440;6.610;2023-02-01T12:32:05;7.30;99.90
16384;DHT22;8301;51.440;6.610;2023-02-01T12:40:02;7.40;99.90
16384;DHT22;8301;51.440;6.610;2023-02-01T12:47:29;7.40;99.90
16384;DHT22;8301;51.440;6.610;2023-02-01T12:49:56;7.40;99.90
16384;DHT22;8301;51.440;6.610;2023-02-01T12:52:26;7.50;99.90
16384;DHT22;8301;51.440;6.610;2023-02-01T12:55:05;7.60;99.90
16384;DHT22;8301;51.440;6.610;2023-02-01T12:57:40;7.50;99.90
16384;DHT22;8301;51.440;6.610;2023-02-01T13:57:49;7.90;99.90
16384;DHT22;8301;51.440;6.610;2023-02-01T14:00:36;7.90;99.90
16384;DHT22;8301;51.440;6.610;2023-02-01T14:03:14;7.90;99.90
16384;DHT22;8301;51.440;6.610;2023-02-01T14:10:53;7.90;99.90
16384;DHT22;8301;51.440;6.610;2023-02-01T14:29:14;7.90;99.90
16384;DHT22;8301;51.440;6.610;2023-02-01T14:31:40;7.90;99.90
16384;DHT22;8301;51.440;6.610;2023-02-01T14:34:15;7.90;99.90
16384;DHT22;8301;51.440;6.610;2023-02-01T14:36:50;7.90;99.90
16384;DHT22;8301;51.440;6.610;2023-02-01T14:39:26;8.00;99.90
16384;DHT22;8301;51.440;6.610;2023-02-01T14:41:54;7.90;99.90
16384;DHT22;8301;51.440;6.610;2023-02-01T14:44:25;7.90;99.90
16384;DHT22;8301;51.440;6.610;2023-02-01T14:47:36;7.90;99.90
16384;DHT22;8301;51.440;6.610;2023-02-01T14:49:27;7.90;99.90
16384;DHT22;8301;51.440;6.610;2023-02-01T14:51:53;8.00;99.90
16384;DHT22;8301;51.440;6.610;2023-02-01T14:54:20;7.90;99.90
16384;DHT22;8301;51.440;6.610;2023-02-01T14:56:49;8.00;99.90
16384;DHT22;8301;51.440;6.610;2023-02-01T14:59:17;7.90;99.90
16384;DHT22;8301;51.440;6.610;2023-02-01T15:01:48;7.90;99.90
16384;DHT22;8301;51.440;6.610;2023-02-01T15:04:16;8.00;99.90
16384;DHT22;8301;51.440;6.610;2023-02-01T15:07:05;7.90;99.90
16384;DHT22;8301;51.440;6.610;2023-02-01T15:09:36;7.90;99.90
16384;DHT22;8301;51.440;6.610;2023-02-01T15:12:05;7.90;99.90
16384;DHT22;8301;51.440;6.610;2023-02-01T15:14:38;7.90;99.90
16384;DHT22;8301;51.440;6.610;2023-02-01T15:17:01;7.90;99.90
16384;DHT22;8301;51.440;6.610;2023-02-01T15:19:29;8.00;99.90
16384;DHT22;8301;51.440;6.610;2023-02-01T15:21:59;8.00;99.90
16384;DHT22;8301;51.440;6.610;2023-02-01T15:24:27;7.90;99.90
16384;DHT22;8301;51.440;6.610;2023-02-01T15:26:54;8.00;99.90
16384;DHT22;8301;51.440;6.610;2023-02-01T15:29:23;7.90;99.90
16384;DHT22;8301;51.440;6.610;2023-02-01T15:31:54;7.90;99.90
16384;DHT22;8301;51.440;6.610;2023-02-01T15:34:21;7.90;99.90
16384;DHT22;8301;51.440;6.610;2023-02-01T15:36:48;7.90;99.90
16384;DHT22;8301;51.440;6.610;2023-02-01T15:39:25;7.90;99.90
16384;DHT22;8301;51.440;6.610;2023-02-01T15:41:56;7.90;99.90
16384;DHT22;8301;51.440;6.610;2023-02-01T15:44:39;7.80;99.90
16384;DHT22;8301;51.440;6.610;2023-02-01T15:47:08;7.70;99.90
16384;DHT22;8301;51.440;6.610;2023-02-01T15:49:39;7.80;99.90
16384;DHT22;8301;51.440;6.610;2023-02-01T15:52:12;7.80;99.90
16384;DHT22;8301;51.440;6.610;2023-02-01T15:54:50;7.70;99.90
16384;DHT22;8301;51.440;6.610;2023-02-01T15:57:26;7.70;99.90
16384;DHT22;8301;51.440;6.610;2023-02-01T15:59:54;7.70;99.90
16384;DHT22;8301;51.440;6.610;2023-02-01T16:02:25;7.70;99.90
16384;DHT22;8301;51.440;6.610;2023-02-01T16:04:52;7.70;99.90
16384;DHT22;8301;51.440;6.610;2023-02-01T16:07:22;7.70;99.90
16384;DHT22;8301;51.440;6.610;2023-02-01T16:15:07;7.60;99.90
16384;DHT22;8301;51.440;6.610;2023-02-01T16:17:34;7.60;99.90
16384;DHT22;8301;51.440;6.610;2023-02-01T16:20:01;7.70;99.90
16384;DHT22;8301;51.440;6.610;2023-02-01T16:22:27;7.70;99.90
16384;DHT22;8301;51.440;6.610;2023-02-01T16:25:00;7.70;99.90
16384;DHT22;8301;51.440;6.610;2023-02-01T16:27:27;7.70;99.90
16384;DHT22;8301;51.440;6.610;2023-02-01T16:29:54;7.60;99.90
16384;DHT22;8301;51.440;6.610;2023-02-01T16:32:22;7.70;99.90
16384;DHT22;8301;51.440;6.610;2023-02-01T16:34:54;7.60;99.90
16384;DHT22;8301;51.440;6.610;2023-02-01T16:37:22;7.60;99.90
16384;DHT22;8301;51.440;6.610;2023-02-01T16:39:58;7.70;99.90
16384;DHT22;8301;51.440;6.610;2023-02-01T16:42:25;7.60;99.90
16384;DHT22;8301;51.440;6.610;2023-02-01T16:44:51;7.60;99.90
16384;DHT22;8301;51.440;6.610;2023-02-01T16:47:20;7.60;99.90
16384;DHT22;8301;51.440;6.610;2023-02-01T16:49:46;7.70;99.90
16384;DHT22;8301;51.440;6.610;2023-02-01T16:52:24;7.70;99.90
16384;DHT22;8301;51.440;6.610;2023-02-01T16:54:50;7.70;99.90
16384;DHT22;8301;51.440;6.610;2023-02-01T16:57:17;7.70;99.90
16384;DHT22;8301;51.440;6.610;2023-02-01T16:59:47;7.70;99.90
16384;DHT22;8301;51.440;6.610;2023-02-01T17:02:15;7.70;99.90
16384;DHT22;8301;51.440;6.610;2023-02-01T17:04:43;7.60;99.90
16384;DHT22;8301;51.440;6.610;2023-02-01T17:07:13;7.60;99.90
16384;DHT22;8301;51.440;6.610;2023-02-01T17:09:41;7.60;99.90
16384;DHT22;8301;51.440;6.610;2023-02-01T17:12:22;7.60;99.90
16384;DHT22;8301;51.440;6.610;2023-02-01T17:14:38;7.60;99.90
16384;DHT22;8301;51.440;6.610;2023-02-01T17:17:07;7.60;99.90
16384;DHT22;8301;51.440;6.610;2023-02-01T17:19:34;7.60;99.90
16384;DHT22;8301;51.440;6.610;2023-02-01T17:22:01;7.60;99.90
16384;DHT22;8301;51.440;6.610;2023-02-01T17:24:29;7.60;99.90
16384;DHT22;8301;51.440;6.610;2023-02-01T17:26:58;7.60;99.90
16384;DHT22;8301;51.440;6.610;2023-02-01T17:29:24;7.50;99.90
16384;DHT22;8301;51.440;6.610;2023-02-01T17:31:52;7.60;99.90
16384;DHT22;8301;51.440;6.610;2023-02-01T17:34:19;7.60;99.90
16384;DHT22;8301;51.440;6.610;2023-02-01T17:36:53;7.60;99.90
16384;DHT22;8301;51.440;6.610;2023-02-01T17:39:19;7.60;99.90
16384;DHT22;8301;51.440;6.610;2023-02-01T17:42:04;7.60;99.90
16384;DHT22;8301;51.440;6.610;2023-02-01T17:44:45;7.50;99.90
16384;DHT22;8301;51.440;6.610;2023-02-01T17:47:01;7.40;99.90
16384;DHT22;8301;51.440;6.610;2023-02-01T17:49:30;7.20;99.90
16384;DHT22;8301;51.440;6.610;2023-02-01T17:51:59;7.20;99.90
16384;DHT22;8301;51.440;6.610;2023-02-01T17:54:26;7.10;99.90
16384;DHT22;8301;51.440;6.610;2023-02-01T17:56:53;7.20;99.90
16384;DHT22;8301;51.440;6.610;2023-02-01T17:59:20;7.30;99.90
16384;DHT22;8301;51.440;6.610;2023-02-01T18:01:48;7.30;99.90
16384;DHT22;8301;51.440;6.610;2023-02-01T18:04:15;7.40;99.90
16384;DHT22;8301;51.440;6.610;2023-02-01T18:06:43;7.40;99.90
16384;DHT22;8301;51.440;6.610;2023-02-01T18:09:10;7.30;99.90
16384;DHT22;8301;51.440;6.610;2023-02-01T18:14:08;7.40;99.90
16384;DHT22;8301;51.440;6.610;2023-02-01T18:16:35;7.40;99.90
16384;DHT22;8301;51.440;6.610;2023-02-01T18:19:02;7.40;99.90
16384;DHT22;8301;51.440;6.610;2023-02-01T18:21:35;7.40;99.90
16384;DHT22;8301;51.440;6.610;2023-02-01T18:23:59;7.40;99.90
16384;DHT22;8301;51.440;6.610;2023-02-01T18:26:26;7.50;99.90
16384;DHT22;8301;51.440;6.610;2023-02-01T18:28:53;7.40;99.90
16384;DHT22;8301;51.440;6.610;2023-02-01T18:31:22;7.40;99.90
16384;DHT22;8301;51.440;6.610;2023-02-01T18:33:50;7.40;99.90
16384;DHT22;8301;51.440;6.610;2023-02-01T18:36:19;7.60;99.90
16384;DHT22;8301;51.440;6.610;2023-02-01T18:38:46;7.60;99.90
16384;DHT22;8301;51.440;6.610;2023-02-01T18:41:14;7.50;99.90
16384;DHT22;8301;51.440;6.610;2023-02-01T18:43:41;7.50;99.90
16384;DHT22;8301;51.440;6.610;2023-02-01T18:46:09;7.50;99.90
16384;DHT22;8301;51.440;6.610;2023-02-01T18:48:36;7.50;99.90
16384;DHT22;8301;51.440;6.610;2023-02-01T18:51:04;7.50;99.90
16384;DHT22;8301;51.440;6.610;2023-02-01T18:53:32;7.50;99.90
16384;DHT22;8301;51.440;6.610;2023-02-01T18:55:59;7.50;99.90
16384;DHT22;8301;51.440;6.610;2023-02-01T18:58:27;7.50;99.90
16384;DHT22;8301;51.440;6.610;2023-02-01T19:00:57;7.50;99.90
16384;DHT22;8301;51.440;6.610;2023-02-01T19:03:24;7.50;99.90
16384;DHT22;8301;51.440;6.610;2023-02-01T19:05:56;7.60;99.90
16384;DHT22;8301;51.440;6.610;2023-02-01T19:08:20;7.60;99.90
16384;DHT22;8301;51.440;6.610;2023-02-01T19:10:48;7.60;99.90
16384;DHT22;8301;51.440;6.610;2023-02-01T19:13:15;7.60;99.90
16384;DHT22;8301;51.440;6.610;2023-02-01T19:15:43;7.50;99.90
16384;DHT22;8301;51.440;6.610;2023-02-01T19:18:10;7.60;99.90
16384;DHT22;8301;51.440;6.610;2023-02-01T19:20:37;7.60;99.90
16384;DHT22;8301;51.440;6.610;2023-02-01T19:25:46;7.70;99.90
16384;DHT22;8301;51.440;6.610;2023-02-01T19:28:14;7.70;99.90
16384;DHT22;8301;51.440;6.610;2023-02-01T19:30:44;7.70;99.90
16384;DHT22;8301;51.440;6.610;2023-02-01T19:33:11;7.70;99.90
16384;DHT22;8301;51.440;6.610;2023-02-01T19:35:39;7.80;99.90